Shirland, Illinois
Current Conditions -  °F | °C
As of 4:15 AM on Tuesday 27 Jan 2015 (Local Time) from KJVL Reporting Station
Haze Haze  
Wind Chill: 28°   Ceiling: 3400
Heat Index: 28°   Visibility: 5mi
Dew Point: 27°   Wind: 0mph
Humidity: 93%   Direction: NA
Pressure: 30"   Gusts: NA
Location:  42.44°N, 89.2°W
Report Text: KJVL 271015Z AUTO 00000KT 5SM BR SCT007 OVC034 M02/M03 A3000 RMK AO2
Loading
Personal Weather Stations






























Interactive Weather Map New forecast layout! Learn more

10-Day Weather Forecast

Advertisements
Track Severe Weather on mobile